Bremerton National Airport Bremerton US
ICAO: KPWT
IATA: PWT
Category: Medium
Scheduled Services: No

Elevation: 444 ft
TransAlt. 18000 ft.

Airport Communications:
SEATTLE APP/DEP:127.1
AWOS 3:121.2
CTAF/UNICOM:123.05

KPWT Zoom In..

If you have problems with the map follow the link
https://www.worldairports.se/pages/airport.php?
ICAO=KPWT

Runways:

(A) RW 02 length 6000 ft width 150 ft
---- / hdg 17

(B) RW 20 length 6000 ft width 150 ft
ILS 111.10 / hdg 197

Location; KPWT
Day. 22 / Time. 17.56 Zulu
* Altimeter: 30.02
* Temperature: 6/° c. 42.8°f.
* Wind from: 200° Speed 06 kn.
Dewpoint: //° c.
Visibility: 10 Statute Miles.
Clouds: Overcast 500 ft.
Conditions: Light Rain.

KPWT 221756Z AUTO 20006KT 10SM -RA OVC005 07/06 A3002 RMK AO2 CIG 004V009 SLP171 P0002 6//// T00670056 10067 20056 51005


Wind From 200°
Speed 06 kn.

 
 
jpsmedia worldairports.se 2020   terms of use